sensor_id;sensor_type;location;lat;lon;timestamp;pressure;altitude;pressure_sealevel;temperature;humidity
17060;BME280;8646;49.716;9.266;2022-10-19T00:01:20;101336.59;;;16.55;100.00
17060;BME280;8646;49.716;9.266;2022-10-19T00:04:24;101332.19;;;16.52;100.00
17060;BME280;8646;49.716;9.266;2022-10-19T00:07:29;101335.16;;;16.48;100.00
17060;BME280;8646;49.716;9.266;2022-10-19T00:10:32;101339.03;;;16.44;100.00
17060;BME280;8646;49.716;9.266;2022-10-19T00:13:36;101338.06;;;16.45;100.00
17060;BME280;8646;49.716;9.266;2022-10-19T00:16:39;101326.31;;;16.42;100.00
17060;BME280;8646;49.716;9.266;2022-10-19T00:19:42;101338.47;;;16.37;100.00
17060;BME280;8646;49.716;9.266;2022-10-19T00:22:49;101327.09;;;16.27;100.00
17060;BME280;8646;49.716;9.266;2022-10-19T00:25:55;101324.69;;;16.21;100.00
17060;BME280;8646;49.716;9.266;2022-10-19T00:28:59;101327.69;;;16.15;100.00
17060;BME280;8646;49.716;9.266;2022-10-19T00:32:02;101326.09;;;16.11;100.00
17060;BME280;8646;49.716;9.266;2022-10-19T00:35:06;101328.16;;;16.06;100.00
17060;BME280;8646;49.716;9.266;2022-10-19T00:38:10;101325.66;;;16.01;100.00
17060;BME280;8646;49.716;9.266;2022-10-19T00:41:14;101329.59;;;15.96;100.00
17060;BME280;8646;49.716;9.266;2022-10-19T00:48:14;101329.59;;;15.77;100.00
17060;BME280;8646;49.716;9.266;2022-10-19T00:51:19;101332.47;;;15.74;100.00
17060;BME280;8646;49.716;9.266;2022-10-19T00:54:24;101322.50;;;15.73;100.00
17060;BME280;8646;49.716;9.266;2022-10-19T00:57:29;101325.41;;;15.70;100.00
17060;BME280;8646;49.716;9.266;2022-10-19T01:00:33;101333.66;;;15.69;100.00
17060;BME280;8646;49.716;9.266;2022-10-19T01:03:36;101315.50;;;15.68;100.00
17060;BME280;8646;49.716;9.266;2022-10-19T01:06:40;101321.19;;;15.63;100.00
17060;BME280;8646;49.716;9.266;2022-10-19T01:09:45;101322.88;;;15.65;100.00
17060;BME280;8646;49.716;9.266;2022-10-19T01:12:56;101314.56;;;15.69;100.00
17060;BME280;8646;49.716;9.266;2022-10-19T01:16:06;101320.44;;;15.59;100.00
17060;BME280;8646;49.716;9.266;2022-10-19T01:19:34;101306.97;;;15.56;100.00
17060;BME280;8646;49.716;9.266;2022-10-19T01:22:57;101314.59;;;15.48;100.00
17060;BME280;8646;49.716;9.266;2022-10-19T01:26:13;101309.56;;;15.39;100.00
17060;BME280;8646;49.716;9.266;2022-10-19T01:29:32;101306.91;;;15.38;100.00
17060;BME280;8646;49.716;9.266;2022-10-19T01:32:50;101298.03;;;15.33;100.00
17060;BME280;8646;49.716;9.266;2022-10-19T01:36:03;101304.38;;;15.33;100.00
17060;BME280;8646;49.716;9.266;2022-10-19T01:39:09;101304.53;;;15.30;100.00
17060;BME280;8646;49.716;9.266;2022-10-19T01:42:21;101293.94;;;15.24;100.00
17060;BME280;8646;49.716;9.266;2022-10-19T01:45:27;101258.50;;;15.04;100.00
17060;BME280;8646;49.716;9.266;2022-10-19T01:48:35;101302.25;;;15.21;100.00
17060;BME280;8646;49.716;9.266;2022-10-19T01:51:42;101304.31;;;15.16;100.00
17060;BME280;8646;49.716;9.266;2022-10-19T01:54:51;101298.38;;;15.06;100.00
17060;BME280;8646;49.716;9.266;2022-10-19T01:57:58;101301.06;;;15.08;100.00
17060;BME280;8646;49.716;9.266;2022-10-19T02:01:04;101298.75;;;14.99;100.00
17060;BME280;8646;49.716;9.266;2022-10-19T02:04:11;101304.19;;;14.99;100.00
17060;BME280;8646;49.716;9.266;2022-10-19T02:07:15;101301.53;;;14.97;100.00
17060;BME280;8646;49.716;9.266;2022-10-19T02:10:19;101293.81;;;15.07;100.00
17060;BME280;8646;49.716;9.266;2022-10-19T02:13:23;101298.59;;;15.02;100.00
17060;BME280;8646;49.716;9.266;2022-10-19T02:16:28;101285.91;;;15.01;100.00
17060;BME280;8646;49.716;9.266;2022-10-19T02:19:33;101285.91;;;15.01;100.00
17060;BME280;8646;49.716;9.266;2022-10-19T02:22:36;101291.22;;;15.04;100.00
17060;BME280;8646;49.716;9.266;2022-10-19T02:25:39;101289.16;;;15.09;100.00
17060;BME280;8646;49.716;9.266;2022-10-19T02:28:42;101291.16;;;15.05;100.00
17060;BME280;8646;49.716;9.266;2022-10-19T02:31:46;101280.44;;;15.01;100.00
17060;BME280;8646;49.716;9.266;2022-10-19T02:34:50;101287.69;;;15.02;100.00
17060;BME280;8646;49.716;9.266;2022-10-19T02:37:56;101266.16;;;14.96;100.00
17060;BME280;8646;49.716;9.266;2022-10-19T02:41:06;101282.56;;;15.14;100.00
17060;BME280;8646;49.716;9.266;2022-10-19T02:44:17;101273.25;;;15.00;100.00
17060;BME280;8646;49.716;9.266;2022-10-19T02:47:25;101277.25;;;15.11;100.00
17060;BME280;8646;49.716;9.266;2022-10-19T02:50:30;101279.25;;;15.08;100.00
17060;BME280;8646;49.716;9.266;2022-10-19T02:53:33;101276.63;;;15.05;100.00
17060;BME280;8646;49.716;9.266;2022-10-19T02:56:36;101272.00;;;15.07;100.00
17060;BME280;8646;49.716;9.266;2022-10-19T02:59:39;101278.72;;;15.00;100.00
17060;BME280;8646;49.716;9.266;2022-10-19T03:02:42;101275.47;;;15.10;100.00
17060;BME280;8646;49.716;9.266;2022-10-19T03:05:47;101277.53;;;15.05;100.00
17060;BME280;8646;49.716;9.266;2022-10-19T03:08:49;101260.78;;;14.94;100.00
17060;BME280;8646;49.716;9.266;2022-10-19T03:11:54;101227.81;;;14.80;100.00
17060;BME280;8646;49.716;9.266;2022-10-19T03:14:57;101259.16;;;14.90;100.00
17060;BME280;8646;49.716;9.266;2022-10-19T03:18:00;101259.94;;;14.92;100.00
17060;BME280;8646;49.716;9.266;2022-10-19T03:21:07;101249.34;;;14.86;100.00
17060;BME280;8646;49.716;9.266;2022-10-19T03:24:11;101234.56;;;14.71;100.00
17060;BME280;8646;49.716;9.266;2022-10-19T03:27:14;101259.50;;;14.82;100.00
17060;BME280;8646;49.716;9.266;2022-10-19T03:30:17;101266.88;;;14.80;100.00
17060;BME280;8646;49.716;9.266;2022-10-19T03:33:20;101263.31;;;14.78;100.00
17060;BME280;8646;49.716;9.266;2022-10-19T03:36:26;101254.31;;;14.76;100.00
17060;BME280;8646;49.716;9.266;2022-10-19T03:39:29;101256.91;;;14.79;100.00
17060;BME280;8646;49.716;9.266;2022-10-19T03:42:32;101268.06;;;14.94;100.00
17060;BME280;8646;49.716;9.266;2022-10-19T03:45:35;101256.00;;;14.99;100.00
17060;BME280;8646;49.716;9.266;2022-10-19T03:48:38;101249.94;;;14.93;100.00
17060;BME280;8646;49.716;9.266;2022-10-19T03:51:42;101251.88;;;14.91;100.00
17060;BME280;8646;49.716;9.266;2022-10-19T03:54:48;101253.91;;;14.85;100.00
17060;BME280;8646;49.716;9.266;2022-10-19T03:57:51;101249.63;;;14.80;100.00
17060;BME280;8646;49.716;9.266;2022-10-19T04:00:54;101259.94;;;14.92;100.00
17060;BME280;8646;49.716;9.266;2022-10-19T04:03:58;101260.41;;;14.83;100.00
17060;BME280;8646;49.716;9.266;2022-10-19T04:07:04;101255.84;;;14.83;100.00
17060;BME280;8646;49.716;9.266;2022-10-19T04:10:07;101259.34;;;14.85;100.00
17060;BME280;8646;49.716;9.266;2022-10-19T04:13:11;101266.88;;;14.80;100.00
17060;BME280;8646;49.716;9.266;2022-10-19T04:16:14;101269.59;;;14.80;100.00
17060;BME280;8646;49.716;9.266;2022-10-19T04:19:17;101265.97;;;14.80;100.00
17060;BME280;8646;49.716;9.266;2022-10-19T04:22:21;101262.13;;;14.84;100.00
17060;BME280;8646;49.716;9.266;2022-10-19T04:25:24;101260.13;;;14.89;100.00
17060;BME280;8646;49.716;9.266;2022-10-19T04:28:27;101256.69;;;14.84;100.00
17060;BME280;8646;49.716;9.266;2022-10-19T04:31:30;101250.22;;;14.86;100.00
17060;BME280;8646;49.716;9.266;2022-10-19T04:34:33;101256.50;;;14.88;100.00
17060;BME280;8646;49.716;9.266;2022-10-19T04:37:41;101248.03;;;14.95;100.00
17060;BME280;8646;49.716;9.266;2022-10-19T04:40:44;101248.91;;;14.95;100.00
17060;BME280;8646;49.716;9.266;2022-10-19T04:43:48;101248.91;;;14.95;100.00
17060;BME280;8646;49.716;9.266;2022-10-19T04:46:51;101253.34;;;14.98;100.00
17060;BME280;8646;49.716;9.266;2022-10-19T04:49:54;101257.84;;;14.99;100.00
17060;BME280;8646;49.716;9.266;2022-10-19T04:52:58;101260.41;;;15.02;100.00
17060;BME280;8646;49.716;9.266;2022-10-19T04:56:04;101255.38;;;14.93;100.00
17060;BME280;8646;49.716;9.266;2022-10-19T04:59:08;101257.81;;;14.80;100.00
17060;BME280;8646;49.716;9.266;2022-10-19T05:02:11;101263.72;;;14.69;100.00
17060;BME280;8646;49.716;9.266;2022-10-19T05:05:14;101251.00;;;14.70;100.00
17060;BME280;8646;49.716;9.266;2022-10-19T05:08:19;101257.03;;;14.76;100.00
17060;BME280;8646;49.716;9.266;2022-10-19T05:11:22;101236.47;;;14.69;100.00
17060;BME280;8646;49.716;9.266;2022-10-19T05:14:26;101266.31;;;14.72;100.00
17060;BME280;8646;49.716;9.266;2022-10-19T05:17:33;101270.56;;;14.59;100.00
17060;BME280;8646;49.716;9.266;2022-10-19T05:20:37;101270.88;;;14.51;100.00
17060;BME280;8646;49.716;9.266;2022-10-19T05:23:42;101275.47;;;14.51;100.00
17060;BME280;8646;49.716;9.266;2022-10-19T05:26:46;101268.47;;;14.44;100.00
17060;BME280;8646;49.716;9.266;2022-10-19T05:29:49;101266.94;;;14.37;100.00
17060;BME280;8646;49.716;9.266;2022-10-19T05:32:52;101267.28;;;14.29;100.00
17060;BME280;8646;49.716;9.266;2022-10-19T05:35:55;101259.38;;;14.23;100.00
17060;BME280;8646;49.716;9.266;2022-10-19T05:39:04;101259.19;;;14.28;100.00
17060;BME280;8646;49.716;9.266;2022-10-19T05:42:07;101250.88;;;14.31;100.00
17060;BME280;8646;49.716;9.266;2022-10-19T05:45:10;101253.59;;;14.31;100.00
17060;BME280;8646;49.716;9.266;2022-10-19T05:48:13;101252.66;;;14.32;100.00
17060;BME280;8646;49.716;9.266;2022-10-19T05:51:18;101257.75;;;14.41;100.00
17060;BME280;8646;49.716;9.266;2022-10-19T05:54:23;101255.38;;;14.32;100.00
17060;BME280;8646;49.716;9.266;2022-10-19T05:57:30;101247.22;;;14.32;100.00
17060;BME280;8646;49.716;9.266;2022-10-19T06:00:34;101248.03;;;14.34;100.00
17060;BME280;8646;49.716;9.266;2022-10-19T06:03:37;101252.53;;;14.35;100.00
17060;BME280;8646;49.716;9.266;2022-10-19T06:06:40;101255.91;;;14.41;100.00
17060;BME280;8646;49.716;9.266;2022-10-19T06:09:45;101251.97;;;14.48;100.00
17060;BME280;8646;49.716;9.266;2022-10-19T06:12:48;101254.22;;;14.37;100.00
17060;BME280;8646;49.716;9.266;2022-10-19T06:15:51;101258.00;;;14.35;100.00
17060;BME280;8646;49.716;9.266;2022-10-19T06:18:55;101250.00;;;14.30;100.00
17060;BME280;8646;49.716;9.266;2022-10-19T06:21:58;101227.16;;;14.12;100.00
17060;BME280;8646;49.716;9.266;2022-10-19T06:25:08;101253.06;;;14.23;100.00
17060;BME280;8646;49.716;9.266;2022-10-19T06:28:11;101257.44;;;14.27;100.00
17060;BME280;8646;49.716;9.266;2022-10-19T06:31:14;101261.09;;;14.26;100.00
17060;BME280;8646;49.716;9.266;2022-10-19T06:34:17;101251.78;;;14.31;100.00
17060;BME280;8646;49.716;9.266;2022-10-19T06:37:20;101255.78;;;14.23;100.00
17060;BME280;8646;49.716;9.266;2022-10-19T06:40:24;101264.91;;;14.22;100.00
17060;BME280;8646;49.716;9.266;2022-10-19T06:43:28;101270.78;;;14.33;100.00
17060;BME280;8646;49.716;9.266;2022-10-19T06:46:31;101260.41;;;14.42;100.00
17060;BME280;8646;49.716;9.266;2022-10-19T06:49:34;101268.72;;;14.38;100.00
17060;BME280;8646;49.716;9.266;2022-10-19T06:52:38;101259.38;;;14.45;100.00
17060;BME280;8646;49.716;9.266;2022-10-19T06:55:42;101267.41;;;14.48;100.00
17060;BME280;8646;49.716;9.266;2022-10-19T06:58:45;101275.53;;;14.49;100.00
17060;BME280;8646;49.716;9.266;2022-10-19T07:01:48;101277.31;;;14.50;100.00
17060;BME280;8646;49.716;9.266;2022-10-19T07:04:50;101275.19;;;14.57;100.00
17060;BME280;8646;49.716;9.266;2022-10-19T07:07:54;101277.41;;;14.68;100.00
17060;BME280;8646;49.716;9.266;2022-10-19T07:11:01;101272.66;;;14.73;100.00
17060;BME280;8646;49.716;9.266;2022-10-19T07:14:05;101270.47;;;14.81;100.00
17060;BME280;8646;49.716;9.266;2022-10-19T07:17:10;101266.28;;;14.93;100.00
17060;BME280;8646;49.716;9.266;2022-10-19T07:20:13;101268.81;;;14.77;100.00
17060;BME280;8646;49.716;9.266;2022-10-19T07:23:16;101269.59;;;14.80;100.00
17060;BME280;8646;49.716;9.266;2022-10-19T07:26:22;101264.81;;;14.85;100.00
17060;BME280;8646;49.716;9.266;2022-10-19T07:29:27;101278.19;;;14.92;100.00
17060;BME280;8646;49.716;9.266;2022-10-19T07:32:30;101273.69;;;14.91;100.00
17060;BME280;8646;49.716;9.266;2022-10-19T07:35:32;101274.41;;;14.94;100.00
17060;BME280;8646;49.716;9.266;2022-10-19T07:38:35;101271.59;;;14.96;100.00
17060;BME280;8646;49.716;9.266;2022-10-19T07:41:40;101271.59;;;14.96;100.00
17060;BME280;8646;49.716;9.266;2022-10-19T07:44:43;101278.84;;;14.97;100.00
17060;BME280;8646;49.716;9.266;2022-10-19T07:47:46;101278.19;;;14.92;100.00
17060;BME280;8646;49.716;9.266;2022-10-19T07:50:49;101283.19;;;15.01;100.00
17060;BME280;8646;49.716;9.266;2022-10-19T07:53:51;101288.25;;;14.89;100.00
17060;BME280;8646;49.716;9.266;2022-10-19T07:56:56;101293.00;;;14.84;100.00
17060;BME280;8646;49.716;9.266;2022-10-19T07:59:59;101287.19;;;14.92;100.00
17060;BME280;8646;49.716;9.266;2022-10-19T08:03:02;101294.19;;;14.99;100.00
17060;BME280;8646;49.716;9.266;2022-10-19T08:06:26;101298.38;;;15.06;100.00
17060;BME280;8646;49.716;9.266;2022-10-19T08:09:29;101302.59;;;15.13;100.00
17060;BME280;8646;49.716;9.266;2022-10-19T08:12:53;101295.84;;;15.22;100.00
17060;BME280;8646;49.716;9.266;2022-10-19T08:15:56;101291.72;;;15.32;100.00
17060;BME280;8646;49.716;9.266;2022-10-19T08:19:00;101293.94;;;15.43;100.00
17060;BME280;8646;49.716;9.266;2022-10-19T08:22:04;101290.72;;;15.53;100.00
17060;BME280;8646;49.716;9.266;2022-10-19T08:25:07;101291.00;;;15.66;100.00
17060;BME280;8646;49.716;9.266;2022-10-19T08:28:11;101291.44;;;15.76;100.00
17060;BME280;8646;49.716;9.266;2022-10-19T08:31:15;101276.28;;;15.70;100.00
17060;BME280;8646;49.716;9.266;2022-10-19T08:34:18;101286.88;;;15.76;100.00
17060;BME280;8646;49.716;9.266;2022-10-19T08:37:21;101283.06;;;15.80;100.00
17060;BME280;8646;49.716;9.266;2022-10-19T08:40:44;101281.03;;;15.84;100.00
17060;BME280;8646;49.716;9.266;2022-10-19T08:43:57;101282.00;;;15.83;99.76
17060;BME280;8646;49.716;9.266;2022-10-19T08:47:07;101272.84;;;16.02;94.31
17060;BME280;8646;49.716;9.266;2022-10-19T08:50:18;101278.50;;;15.81;94.30
17060;BME280;8646;49.716;9.266;2022-10-19T08:53:30;101278.94;;;15.72;96.62
17060;BME280;8646;49.716;9.266;2022-10-19T08:56:39;101282.06;;;15.81;95.21
17060;BME280;8646;49.716;9.266;2022-10-19T08:59:57;101285.84;;;15.79;95.17
17060;BME280;8646;49.716;9.266;2022-10-19T09:03:12;101287.19;;;15.70;96.53
17060;BME280;8646;49.716;9.266;2022-10-19T09:06:45;101257.06;;;15.53;97.29
17060;BME280;8646;49.716;9.266;2022-10-19T09:09:53;101284.09;;;15.78;97.45
17060;BME280;8646;49.716;9.266;2022-10-19T09:12:59;101288.91;;;15.73;97.27
17060;BME280;8646;49.716;9.266;2022-10-19T09:16:05;101285.03;;;15.77;97.31
17060;BME280;8646;49.716;9.266;2022-10-19T09:19:12;101277.81;;;15.76;97.12
17060;BME280;8646;49.716;9.266;2022-10-19T09:22:19;101268.44;;;15.81;97.52
17060;BME280;8646;49.716;9.266;2022-10-19T09:25:24;101261.50;;;15.93;96.35
17060;BME280;8646;49.716;9.266;2022-10-19T09:28:43;101274.19;;;15.94;96.27
17060;BME280;8646;49.716;9.266;2022-10-19T09:31:52;101268.09;;;16.06;95.93
17060;BME280;8646;49.716;9.266;2022-10-19T09:34:57;101268.09;;;16.06;94.29
17060;BME280;8646;49.716;9.266;2022-10-19T09:38:04;101270.03;;;16.04;95.32
17060;BME280;8646;49.716;9.266;2022-10-19T09:41:19;101267.19;;;16.06;95.45
17060;BME280;8646;49.716;9.266;2022-10-19T09:44:23;101272.53;;;16.09;95.32
17060;BME280;8646;49.716;9.266;2022-10-19T09:47:32;101262.47;;;16.09;94.98
17060;BME280;8646;49.716;9.266;2022-10-19T09:50:41;101256.88;;;16.12;93.63
17060;BME280;8646;49.716;9.266;2022-10-19T09:53:45;101253.56;;;16.23;91.74
17060;BME280;8646;49.716;9.266;2022-10-19T09:56:52;101257.97;;;16.08;92.26
17060;BME280;8646;49.716;9.266;2022-10-19T09:59:55;101263.00;;;15.98;93.87
17060;BME280;8646;49.716;9.266;2022-10-19T10:02:59;101248.75;;;16.11;92.22
17060;BME280;8646;49.716;9.266;2022-10-19T10:06:05;101256.22;;;16.07;92.32
17060;BME280;8646;49.716;9.266;2022-10-19T10:09:14;101258.31;;;16.02;92.73
17060;BME280;8646;49.716;9.266;2022-10-19T10:12:17;101236.56;;;15.82;93.13
17060;BME280;8646;49.716;9.266;2022-10-19T10:15:24;101220.13;;;15.83;92.91
17060;BME280;8646;49.716;9.266;2022-10-19T10:18:29;101248.00;;;16.07;92.44
17060;BME280;8646;49.716;9.266;2022-10-19T10:21:34;101244.66;;;16.02;93.30
17060;BME280;8646;49.716;9.266;2022-10-19T10:24:50;101245.13;;;16.10;91.68
17060;BME280;8646;49.716;9.266;2022-10-19T10:27:57;101244.56;;;16.03;92.67
17060;BME280;8646;49.716;9.266;2022-10-19T10:31:03;101245.47;;;16.04;92.55
17060;BME280;8646;49.716;9.266;2022-10-19T10:34:17;101250.44;;;15.96;92.88
17060;BME280;8646;49.716;9.266;2022-10-19T10:37:38;101226.31;;;15.87;93.04
17060;BME280;8646;49.716;9.266;2022-10-19T10:40:49;101237.88;;;15.92;93.59
17060;BME280;8646;49.716;9.266;2022-10-19T10:43:54;101239.50;;;15.96;93.48
17060;BME280;8646;49.716;9.266;2022-10-19T10:47:05;101233.88;;;15.99;93.39
17060;BME280;8646;49.716;9.266;2022-10-19T10:50:20;101242.63;;;16.06;92.44
17060;BME280;8646;49.716;9.266;2022-10-19T10:53:32;101233.88;;;15.99;92.88
17060;BME280;8646;49.716;9.266;2022-10-19T10:56:35;101233.63;;;15.86;94.03
17060;BME280;8646;49.716;9.266;2022-10-19T10:59:53;101229.13;;;15.85;94.07
17060;BME280;8646;49.716;9.266;2022-10-19T11:03:03;101227.13;;;15.89;94.39
17060;BME280;8646;49.716;9.266;2022-10-19T11:06:11;101221.28;;;15.96;93.16
17060;BME280;8646;49.716;9.266;2022-10-19T11:09:19;101225.75;;;15.97;93.33
17060;BME280;8646;49.716;9.266;2022-10-19T11:12:32;101223.75;;;16.01;92.71
17060;BME280;8646;49.716;9.266;2022-10-19T11:15:43;101215.72;;;15.98;92.89
17060;BME280;8646;49.716;9.266;2022-10-19T11:18:55;101220.97;;;16.02;92.49
17060;BME280;8646;49.716;9.266;2022-10-19T11:22:09;101224.72;;;16.00;92.78
17060;BME280;8646;49.716;9.266;2022-10-19T11:25:23;101212.59;;;16.06;91.67
17060;BME280;8646;49.716;9.266;2022-10-19T11:28:42;101214.13;;;15.94;92.47
17060;BME280;8646;49.716;9.266;2022-10-19T11:31:50;101209.06;;;15.86;92.77
17060;BME280;8646;49.716;9.266;2022-10-19T11:35:10;101213.34;;;15.73;93.07
17060;BME280;8646;49.716;9.266;2022-10-19T11:38:33;101208.03;;;15.89;92.34
17060;BME280;8646;49.716;9.266;2022-10-19T11:41:43;101202.56;;;15.89;92.47
17060;BME280;8646;49.716;9.266;2022-10-19T11:44:56;101199.47;;;15.78;93.37
17060;BME280;8646;49.716;9.266;2022-10-19T11:51:34;101186.97;;;15.91;94.39
17060;BME280;8646;49.716;9.266;2022-10-19T11:54:51;101181.28;;;16.30;92.93
17060;BME280;8646;49.716;9.266;2022-10-19T11:58:06;101174.84;;;16.31;92.30
17060;BME280;8646;49.716;9.266;2022-10-19T12:01:20;101163.63;;;16.37;92.17
17060;BME280;8646;49.716;9.266;2022-10-19T12:04:39;101162.56;;;16.39;90.31
17060;BME280;8646;49.716;9.266;2022-10-19T12:07:52;101154.06;;;16.28;90.71
17060;BME280;8646;49.716;9.266;2022-10-19T12:11:03;101142.50;;;16.23;90.10
17060;BME280;8646;49.716;9.266;2022-10-19T12:14:12;101145.69;;;16.14;90.88
17060;BME280;8646;49.716;9.266;2022-10-19T12:17:21;101140.91;;;16.19;91.10
17060;BME280;8646;49.716;9.266;2022-10-19T12:20:29;101146.09;;;16.24;90.71
17060;BME280;8646;49.716;9.266;2022-10-19T12:23:35;101150.22;;;16.15;91.06
17060;BME280;8646;49.716;9.266;2022-10-19T12:26:41;101146.22;;;16.05;91.58
17060;BME280;8646;49.716;9.266;2022-10-19T12:29:47;101153.91;;;15.97;92.54
17060;BME280;8646;49.716;9.266;2022-10-19T12:32:57;101134.47;;;16.03;92.95
17060;BME280;8646;49.716;9.266;2022-10-19T12:36:11;101142.00;;;16.15;92.51
17060;BME280;8646;49.716;9.266;2022-10-19T12:39:23;101138.31;;;16.16;91.93
17060;BME280;8646;49.716;9.266;2022-10-19T12:42:33;101137.84;;;16.08;91.88
17060;BME280;8646;49.716;9.266;2022-10-19T12:45:42;101108.84;;;16.06;91.87
17060;BME280;8646;49.716;9.266;2022-10-19T12:49:34;101117.38;;;16.17;90.71
17060;BME280;8646;49.716;9.266;2022-10-19T12:52:41;101121.78;;;16.19;90.45
17060;BME280;8646;49.716;9.266;2022-10-19T12:55:45;101117.44;;;15.98;92.04
17060;BME280;8646;49.716;9.266;2022-10-19T12:58:52;101112.50;;;15.89;93.11
17060;BME280;8646;49.716;9.266;2022-10-19T13:01:56;101110.69;;;16.22;91.13
17060;BME280;8646;49.716;9.266;2022-10-19T13:05:01;101104.94;;;16.11;91.68
17060;BME280;8646;49.716;9.266;2022-10-19T13:08:05;101105.75;;;16.13;90.46
17060;BME280;8646;49.716;9.266;2022-10-19T13:11:14;101099.41;;;16.13;90.66
17060;BME280;8646;49.716;9.266;2022-10-19T13:14:41;101098.84;;;15.89;92.15
17060;BME280;8646;49.716;9.266;2022-10-19T13:17:45;101063.44;;;15.70;92.20
17060;BME280;8646;49.716;9.266;2022-10-19T13:20:53;101106.03;;;15.90;92.69
17060;BME280;8646;49.716;9.266;2022-10-19T13:27:37;101092.09;;;15.96;92.35
17060;BME280;8646;49.716;9.266;2022-10-19T13:31:01;101094.63;;;15.82;93.12
17060;BME280;8646;49.716;9.266;2022-10-19T13:34:14;101093.75;;;15.81;93.64
17060;BME280;8646;49.716;9.266;2022-10-19T13:37:18;101101.25;;;15.78;94.43
17060;BME280;8646;49.716;9.266;2022-10-19T13:40:21;101090.88;;;15.84;93.71
17060;BME280;8646;49.716;9.266;2022-10-19T13:43:27;101069.13;;;15.83;92.97
17060;BME280;8646;49.716;9.266;2022-10-19T13:46:42;101089.38;;;15.79;93.57
17060;BME280;8646;49.716;9.266;2022-10-19T13:50:16;101090.78;;;15.69;93.95
17060;BME280;8646;49.716;9.266;2022-10-19T13:53:39;101070.09;;;15.82;94.20
17060;BME280;8646;49.716;9.266;2022-10-19T13:56:57;101075.25;;;15.88;93.15
17060;BME280;8646;49.716;9.266;2022-10-19T14:00:14;101073.00;;;15.79;93.76
17060;BME280;8646;49.716;9.266;2022-10-19T14:03:24;101065.91;;;15.75;93.36
17060;BME280;8646;49.716;9.266;2022-10-19T14:06:33;101062.06;;;15.79;92.92
17060;BME280;8646;49.716;9.266;2022-10-19T14:10:00;101062.22;;;15.76;93.03
17060;BME280;8646;49.716;9.266;2022-10-19T14:13:05;101066.25;;;15.86;92.63
17060;BME280;8646;49.716;9.266;2022-10-19T14:16:19;101068.34;;;15.81;93.30
17060;BME280;8646;49.716;9.266;2022-10-19T14:19:26;101059.81;;;15.87;93.65
17060;BME280;8646;49.716;9.266;2022-10-19T14:22:30;101048.97;;;15.85;93.36
17060;BME280;8646;49.716;9.266;2022-10-19T14:25:36;101044.00;;;15.76;93.67
17060;BME280;8646;49.716;9.266;2022-10-19T14:28:40;101050.28;;;15.78;93.92
17060;BME280;8646;49.716;9.266;2022-10-19T14:31:43;101039.00;;;16.01;90.19
17060;BME280;8646;49.716;9.266;2022-10-19T14:34:47;101038.38;;;15.96;89.75
17060;BME280;8646;49.716;9.266;2022-10-19T14:37:50;101037.03;;;15.71;90.87
17060;BME280;8646;49.716;9.266;2022-10-19T14:40:54;101040.72;;;15.70;91.28
17060;BME280;8646;49.716;9.266;2022-10-19T14:43:58;101034.84;;;15.77;90.20
17060;BME280;8646;49.716;9.266;2022-10-19T14:47:15;101048.97;;;15.68;91.29
17060;BME280;8646;49.716;9.266;2022-10-19T14:50:20;101040.66;;;15.71;91.12
17060;BME280;8646;49.716;9.266;2022-10-19T14:53:32;101050.59;;;15.72;91.24
17060;BME280;8646;49.716;9.266;2022-10-19T14:56:40;101041.53;;;15.72;90.20
17060;BME280;8646;49.716;9.266;2022-10-19T14:59:46;101033.66;;;15.65;90.98
17060;BME280;8646;49.716;9.266;2022-10-19T15:02:56;101030.84;;;15.67;91.18
17060;BME280;8646;49.716;9.266;2022-10-19T15:06:01;101040.09;;;15.64;91.34
17060;BME280;8646;49.716;9.266;2022-10-19T15:09:06;101025.94;;;15.74;89.76
17060;BME280;8646;49.716;9.266;2022-10-19T15:12:28;101019.69;;;15.72;89.82
17060;BME280;8646;49.716;9.266;2022-10-19T15:15:33;101025.66;;;15.62;90.78
17060;BME280;8646;49.716;9.266;2022-10-19T15:18:38;101032.06;;;15.61;91.32
17060;BME280;8646;49.716;9.266;2022-10-19T15:22:06;101031.25;;;15.59;91.16
17060;BME280;8646;49.716;9.266;2022-10-19T15:25:25;101020.59;;;15.55;91.65
17060;BME280;8646;49.716;9.266;2022-10-19T15:28:35;101015.34;;;15.68;90.26
17060;BME280;8646;49.716;9.266;2022-10-19T15:31:42;101006.53;;;15.62;90.45
17060;BME280;8646;49.716;9.266;2022-10-19T15:34:45;100998.34;;;15.62;89.91
17060;BME280;8646;49.716;9.266;2022-10-19T15:37:48;101011.34;;;15.57;90.67
17060;BME280;8646;49.716;9.266;2022-10-19T15:40:55;101003.88;;;15.61;90.42
17060;BME280;8646;49.716;9.266;2022-10-19T15:44:01;101012.16;;;15.59;90.67
17060;BME280;8646;49.716;9.266;2022-10-19T15:47:20;100999.41;;;15.60;90.81
17060;BME280;8646;49.716;9.266;2022-10-19T15:50:31;100993.94;;;15.60;90.10
17060;BME280;8646;49.716;9.266;2022-10-19T15:53:38;100992.53;;;15.51;90.84
17060;BME280;8646;49.716;9.266;2022-10-19T15:56:41;100990.56;;;15.72;89.07
17060;BME280;8646;49.716;9.266;2022-10-19T15:59:50;100986.00;;;15.73;87.74
17060;BME280;8646;49.716;9.266;2022-10-19T16:02:53;100985.41;;;15.66;88.07
17060;BME280;8646;49.716;9.266;2022-10-19T16:05:56;100987.09;;;15.51;89.21
17060;BME280;8646;49.716;9.266;2022-10-19T16:08:59;100975.88;;;15.40;89.82
17060;BME280;8646;49.716;9.266;2022-10-19T16:12:02;100976.84;;;15.39;90.06
17060;BME280;8646;49.716;9.266;2022-10-19T16:15:10;100964.22;;;15.37;90.03
17060;BME280;8646;49.716;9.266;2022-10-19T16:18:13;100966.31;;;15.32;90.23
17060;BME280;8646;49.716;9.266;2022-10-19T16:21:16;100942.25;;;15.22;90.05
17060;BME280;8646;49.716;9.266;2022-10-19T16:24:20;100964.16;;;15.38;88.97
17060;BME280;8646;49.716;9.266;2022-10-19T16:27:22;100960.22;;;15.26;89.93
17060;BME280;8646;49.716;9.266;2022-10-19T16:30:26;100962.22;;;15.23;90.70
17060;BME280;8646;49.716;9.266;2022-10-19T16:33:29;100949.63;;;15.20;90.51
17060;BME280;8646;49.716;9.266;2022-10-19T16:36:33;100946.97;;;15.19;90.74